sensor_id;sensor_type;location;lat;lon;timestamp;P1;durP1;ratioP1;P2;durP2;ratioP2
10244;SDS011;5167;52.164;10.530;2023-03-01T00:00:38;13.23;;;8.53;;
10244;SDS011;5167;52.164;10.530;2023-03-01T00:03:04;17.90;;;9.93;;
10244;SDS011;5167;52.164;10.530;2023-03-01T00:05:30;13.47;;;7.47;;
10244;SDS011;5167;52.164;10.530;2023-03-01T00:07:55;13.33;;;7.20;;
10244;SDS011;5167;52.164;10.530;2023-03-01T00:10:20;12.50;;;7.30;;
10244;SDS011;5167;52.164;10.530;2023-03-01T00:12:46;13.97;;;7.90;;
10244;SDS011;5167;52.164;10.530;2023-03-01T00:15:11;12.27;;;7.37;;
10244;SDS011;5167;52.164;10.530;2023-03-01T00:17:37;13.40;;;7.37;;
10244;SDS011;5167;52.164;10.530;2023-03-01T00:20:03;14.20;;;7.60;;
10244;SDS011;5167;52.164;10.530;2023-03-01T00:22:33;12.70;;;6.93;;
10244;SDS011;5167;52.164;10.530;2023-03-01T00:24:58;15.63;;;7.50;;
10244;SDS011;5167;52.164;10.530;2023-03-01T00:27:24;15.73;;;8.57;;
10244;SDS011;5167;52.164;10.530;2023-03-01T00:29:49;13.40;;;7.13;;
10244;SDS011;5167;52.164;10.530;2023-03-01T00:32:15;13.70;;;7.50;;
10244;SDS011;5167;52.164;10.530;2023-03-01T00:34:40;17.50;;;7.70;;
10244;SDS011;5167;52.164;10.530;2023-03-01T00:37:06;13.10;;;7.67;;
10244;SDS011;5167;52.164;10.530;2023-03-01T00:39:31;11.23;;;7.00;;
10244;SDS011;5167;52.164;10.530;2023-03-01T00:41:58;12.33;;;7.50;;
10244;SDS011;5167;52.164;10.530;2023-03-01T00:44:23;11.10;;;7.53;;
10244;SDS011;5167;52.164;10.530;2023-03-01T00:46:49;14.13;;;7.90;;
10244;SDS011;5167;52.164;10.530;2023-03-01T00:49:14;10.53;;;6.97;;
10244;SDS011;5167;52.164;10.530;2023-03-01T00:51:40;11.00;;;7.00;;
10244;SDS011;5167;52.164;10.530;2023-03-01T00:54:07;14.93;;;7.70;;
10244;SDS011;5167;52.164;10.530;2023-03-01T00:56:33;14.23;;;7.63;;
10244;SDS011;5167;52.164;10.530;2023-03-01T00:58:59;11.77;;;7.43;;
10244;SDS011;5167;52.164;10.530;2023-03-01T01:01:26;9.83;;;6.63;;
10244;SDS011;5167;52.164;10.530;2023-03-01T01:03:56;11.47;;;6.97;;
10244;SDS011;5167;52.164;10.530;2023-03-01T01:06:25;10.63;;;6.27;;
10244;SDS011;5167;52.164;10.530;2023-03-01T01:08:53;8.97;;;5.87;;
10244;SDS011;5167;52.164;10.530;2023-03-01T01:11:20;11.53;;;6.60;;
10244;SDS011;5167;52.164;10.530;2023-03-01T01:13:46;9.43;;;6.23;;
10244;SDS011;5167;52.164;10.530;2023-03-01T01:16:13;9.60;;;5.83;;
10244;SDS011;5167;52.164;10.530;2023-03-01T01:18:39;8.30;;;6.07;;
10244;SDS011;5167;52.164;10.530;2023-03-01T01:21:09;12.73;;;6.73;;
10244;SDS011;5167;52.164;10.530;2023-03-01T01:23:38;9.97;;;6.40;;
10244;SDS011;5167;52.164;10.530;2023-03-01T01:26:09;13.07;;;6.23;;
10244;SDS011;5167;52.164;10.530;2023-03-01T01:28:36;9.23;;;6.50;;
10244;SDS011;5167;52.164;10.530;2023-03-01T01:31:02;12.17;;;6.50;;
10244;SDS011;5167;52.164;10.530;2023-03-01T01:33:28;9.97;;;6.57;;
10244;SDS011;5167;52.164;10.530;2023-03-01T01:35:53;12.73;;;6.97;;
10244;SDS011;5167;52.164;10.530;2023-03-01T01:38:19;12.83;;;6.90;;
10244;SDS011;5167;52.164;10.530;2023-03-01T01:40:48;13.00;;;7.20;;
10244;SDS011;5167;52.164;10.530;2023-03-01T01:43:16;12.97;;;7.60;;
10244;SDS011;5167;52.164;10.530;2023-03-01T01:45:48;10.87;;;7.17;;
10244;SDS011;5167;52.164;10.530;2023-03-01T01:48:21;11.80;;;7.13;;
10244;SDS011;5167;52.164;10.530;2023-03-01T01:50:55;10.80;;;6.50;;
10244;SDS011;5167;52.164;10.530;2023-03-01T01:53:24;13.57;;;6.83;;
10244;SDS011;5167;52.164;10.530;2023-03-01T01:55:54;8.80;;;5.63;;
10244;SDS011;5167;52.164;10.530;2023-03-01T01:58:23;9.30;;;6.13;;
10244;SDS011;5167;52.164;10.530;2023-03-01T02:00:52;10.53;;;6.40;;
10244;SDS011;5167;52.164;10.530;2023-03-01T02:03:28;12.23;;;7.00;;
10244;SDS011;5167;52.164;10.530;2023-03-01T02:06:03;11.77;;;7.20;;
10244;SDS011;5167;52.164;10.530;2023-03-01T02:08:36;17.30;;;6.63;;
10244;SDS011;5167;52.164;10.530;2023-03-01T02:11:06;10.80;;;6.60;;
10244;SDS011;5167;52.164;10.530;2023-03-01T02:13:32;12.13;;;6.83;;
10244;SDS011;5167;52.164;10.530;2023-03-01T02:15:59;11.90;;;6.97;;
10244;SDS011;5167;52.164;10.530;2023-03-01T02:18:28;11.00;;;7.13;;
10244;SDS011;5167;52.164;10.530;2023-03-01T02:23:55;9.60;;;6.50;;
10244;SDS011;5167;52.164;10.530;2023-03-01T02:26:28;9.97;;;7.20;;
10244;SDS011;5167;52.164;10.530;2023-03-01T02:29:02;10.13;;;6.30;;
10244;SDS011;5167;52.164;10.530;2023-03-01T02:31:28;11.03;;;6.47;;
10244;SDS011;5167;52.164;10.530;2023-03-01T02:34:13;12.27;;;6.90;;
10244;SDS011;5167;52.164;10.530;2023-03-01T02:39:11;12.03;;;7.07;;
10244;SDS011;5167;52.164;10.530;2023-03-01T02:41:42;11.63;;;7.07;;
10244;SDS011;5167;52.164;10.530;2023-03-01T02:44:11;10.73;;;6.83;;
10244;SDS011;5167;52.164;10.530;2023-03-01T02:46:50;12.90;;;6.83;;
10244;SDS011;5167;52.164;10.530;2023-03-01T02:49:23;10.30;;;7.00;;
10244;SDS011;5167;52.164;10.530;2023-03-01T02:57:26;18.13;;;8.03;;
10244;SDS011;5167;52.164;10.530;2023-03-01T02:59:54;11.60;;;7.20;;
10244;SDS011;5167;52.164;10.530;2023-03-01T03:02:22;19.37;;;7.47;;
10244;SDS011;5167;52.164;10.530;2023-03-01T03:05:09;12.00;;;7.50;;
10244;SDS011;5167;52.164;10.530;2023-03-01T03:07:39;9.27;;;7.03;;
10244;SDS011;5167;52.164;10.530;2023-03-01T03:10:08;11.03;;;6.90;;
10244;SDS011;5167;52.164;10.530;2023-03-01T03:12:36;10.63;;;7.10;;
10244;SDS011;5167;52.164;10.530;2023-03-01T03:15:02;12.50;;;7.20;;
10244;SDS011;5167;52.164;10.530;2023-03-01T03:17:33;11.07;;;6.70;;
10244;SDS011;5167;52.164;10.530;2023-03-01T03:20:03;10.23;;;6.43;;
10244;SDS011;5167;52.164;10.530;2023-03-01T03:22:29;11.13;;;7.50;;
10244;SDS011;5167;52.164;10.530;2023-03-01T03:24:55;13.17;;;7.50;;
10244;SDS011;5167;52.164;10.530;2023-03-01T03:27:20;9.67;;;6.57;;
10244;SDS011;5167;52.164;10.530;2023-03-01T03:29:46;10.27;;;6.80;;
10244;SDS011;5167;52.164;10.530;2023-03-01T03:32:11;11.73;;;6.57;;
10244;SDS011;5167;52.164;10.530;2023-03-01T03:34:37;13.03;;;7.50;;
10244;SDS011;5167;52.164;10.530;2023-03-01T03:37:02;9.13;;;6.60;;
10244;SDS011;5167;52.164;10.530;2023-03-01T03:39:28;10.53;;;6.90;;
10244;SDS011;5167;52.164;10.530;2023-03-01T03:41:59;11.10;;;6.70;;
10244;SDS011;5167;52.164;10.530;2023-03-01T03:44:25;10.90;;;7.10;;
10244;SDS011;5167;52.164;10.530;2023-03-01T03:46:50;16.87;;;8.90;;
10244;SDS011;5167;52.164;10.530;2023-03-01T03:49:16;12.10;;;7.10;;
10244;SDS011;5167;52.164;10.530;2023-03-01T03:51:41;13.93;;;6.37;;
10244;SDS011;5167;52.164;10.530;2023-03-01T03:54:07;11.33;;;6.57;;
10244;SDS011;5167;52.164;10.530;2023-03-01T03:56:32;11.20;;;6.37;;
10244;SDS011;5167;52.164;10.530;2023-03-01T03:58:58;8.87;;;6.40;;
10244;SDS011;5167;52.164;10.530;2023-03-01T04:01:23;15.33;;;6.53;;
10244;SDS011;5167;52.164;10.530;2023-03-01T04:03:49;11.30;;;5.93;;
10244;SDS011;5167;52.164;10.530;2023-03-01T04:06:19;11.27;;;6.43;;
10244;SDS011;5167;52.164;10.530;2023-03-01T04:08:44;10.27;;;5.67;;
10244;SDS011;5167;52.164;10.530;2023-03-01T04:11:10;11.57;;;6.43;;
10244;SDS011;5167;52.164;10.530;2023-03-01T04:13:52;7.00;;;5.23;;
10244;SDS011;5167;52.164;10.530;2023-03-01T04:16:19;10.27;;;6.47;;
10244;SDS011;5167;52.164;10.530;2023-03-01T04:18:45;10.70;;;5.80;;
10244;SDS011;5167;52.164;10.530;2023-03-01T04:21:11;11.70;;;6.80;;
10244;SDS011;5167;52.164;10.530;2023-03-01T04:23:37;10.50;;;5.57;;
10244;SDS011;5167;52.164;10.530;2023-03-01T04:26:03;9.50;;;6.20;;
10244;SDS011;5167;52.164;10.530;2023-03-01T04:28:33;9.73;;;6.07;;
10244;SDS011;5167;52.164;10.530;2023-03-01T04:31:07;10.20;;;6.13;;
10244;SDS011;5167;52.164;10.530;2023-03-01T04:33:48;11.67;;;6.53;;
10244;SDS011;5167;52.164;10.530;2023-03-01T04:36:19;10.87;;;5.80;;
10244;SDS011;5167;52.164;10.530;2023-03-01T04:38:47;8.97;;;5.60;;
10244;SDS011;5167;52.164;10.530;2023-03-01T04:41:13;9.40;;;6.13;;
10244;SDS011;5167;52.164;10.530;2023-03-01T04:43:40;10.53;;;5.97;;
10244;SDS011;5167;52.164;10.530;2023-03-01T04:46:07;9.07;;;5.20;;
10244;SDS011;5167;52.164;10.530;2023-03-01T04:48:35;6.63;;;5.07;;
10244;SDS011;5167;52.164;10.530;2023-03-01T04:51:02;7.97;;;5.00;;
10244;SDS011;5167;52.164;10.530;2023-03-01T04:53:28;8.27;;;5.10;;
10244;SDS011;5167;52.164;10.530;2023-03-01T04:55:54;10.10;;;5.27;;
10244;SDS011;5167;52.164;10.530;2023-03-01T04:58:24;10.23;;;6.17;;
10244;SDS011;5167;52.164;10.530;2023-03-01T05:00:51;9.10;;;5.40;;
10244;SDS011;5167;52.164;10.530;2023-03-01T05:03:17;7.80;;;5.67;;
10244;SDS011;5167;52.164;10.530;2023-03-01T05:05:44;11.10;;;5.63;;
10244;SDS011;5167;52.164;10.530;2023-03-01T05:08:11;10.47;;;5.97;;
10244;SDS011;5167;52.164;10.530;2023-03-01T05:10:42;9.67;;;6.00;;
10244;SDS011;5167;52.164;10.530;2023-03-01T05:13:13;11.70;;;7.20;;
10244;SDS011;5167;52.164;10.530;2023-03-01T05:15:40;13.27;;;6.67;;
10244;SDS011;5167;52.164;10.530;2023-03-01T05:18:05;12.97;;;6.97;;
10244;SDS011;5167;52.164;10.530;2023-03-01T05:20:36;8.37;;;6.30;;
10244;SDS011;5167;52.164;10.530;2023-03-01T05:23:02;10.43;;;6.57;;
10244;SDS011;5167;52.164;10.530;2023-03-01T05:25:30;10.00;;;5.87;;
10244;SDS011;5167;52.164;10.530;2023-03-01T05:27:57;12.97;;;6.80;;
10244;SDS011;5167;52.164;10.530;2023-03-01T05:30:29;11.70;;;7.23;;
10244;SDS011;5167;52.164;10.530;2023-03-01T05:32:56;16.13;;;7.07;;
10244;SDS011;5167;52.164;10.530;2023-03-01T05:35:23;12.33;;;7.27;;
10244;SDS011;5167;52.164;10.530;2023-03-01T05:37:49;8.50;;;6.87;;
10244;SDS011;5167;52.164;10.530;2023-03-01T05:40:16;14.00;;;7.63;;
10244;SDS011;5167;52.164;10.530;2023-03-01T05:42:44;16.37;;;6.53;;
10244;SDS011;5167;52.164;10.530;2023-03-01T05:45:11;9.83;;;6.13;;
10244;SDS011;5167;52.164;10.530;2023-03-01T05:47:38;14.33;;;6.90;;
10244;SDS011;5167;52.164;10.530;2023-03-01T05:50:08;12.53;;;7.00;;
10244;SDS011;5167;52.164;10.530;2023-03-01T05:52:35;18.27;;;6.60;;
10244;SDS011;5167;52.164;10.530;2023-03-01T05:55:01;8.03;;;6.43;;
10244;SDS011;5167;52.164;10.530;2023-03-01T05:57:27;14.63;;;7.47;;
10244;SDS011;5167;52.164;10.530;2023-03-01T05:59:53;10.37;;;6.47;;
10244;SDS011;5167;52.164;10.530;2023-03-01T06:02:19;13.73;;;6.87;;
10244;SDS011;5167;52.164;10.530;2023-03-01T06:04:44;10.90;;;6.63;;
10244;SDS011;5167;52.164;10.530;2023-03-01T06:07:10;11.10;;;6.73;;
10244;SDS011;5167;52.164;10.530;2023-03-01T06:09:36;11.10;;;6.40;;
10244;SDS011;5167;52.164;10.530;2023-03-01T06:12:01;11.53;;;7.10;;
10244;SDS011;5167;52.164;10.530;2023-03-01T06:14:27;11.53;;;7.50;;
10244;SDS011;5167;52.164;10.530;2023-03-01T06:16:52;11.80;;;7.30;;
10244;SDS011;5167;52.164;10.530;2023-03-01T06:19:17;16.63;;;8.03;;
10244;SDS011;5167;52.164;10.530;2023-03-01T06:21:43;13.53;;;7.13;;
10244;SDS011;5167;52.164;10.530;2023-03-01T06:24:08;16.57;;;8.13;;
10244;SDS011;5167;52.164;10.530;2023-03-01T06:26:34;11.17;;;7.13;;
10244;SDS011;5167;52.164;10.530;2023-03-01T06:28:59;13.30;;;7.90;;
10244;SDS011;5167;52.164;10.530;2023-03-01T06:31:25;15.33;;;8.53;;
10244;SDS011;5167;52.164;10.530;2023-03-01T06:33:50;12.53;;;7.67;;
10244;SDS011;5167;52.164;10.530;2023-03-01T06:36:16;15.40;;;7.63;;
10244;SDS011;5167;52.164;10.530;2023-03-01T06:38:43;17.63;;;8.53;;
10244;SDS011;5167;52.164;10.530;2023-03-01T06:41:09;14.30;;;8.10;;
10244;SDS011;5167;52.164;10.530;2023-03-01T06:43:35;12.40;;;8.63;;
10244;SDS011;5167;52.164;10.530;2023-03-01T06:46:03;16.47;;;9.40;;
10244;SDS011;5167;52.164;10.530;2023-03-01T06:48:30;16.37;;;9.03;;
10244;SDS011;5167;52.164;10.530;2023-03-01T06:50:57;15.43;;;9.27;;
10244;SDS011;5167;52.164;10.530;2023-03-01T06:53:23;14.67;;;8.67;;
10244;SDS011;5167;52.164;10.530;2023-03-01T06:55:53;18.53;;;9.17;;
10244;SDS011;5167;52.164;10.530;2023-03-01T06:58:19;15.70;;;9.33;;
10244;SDS011;5167;52.164;10.530;2023-03-01T07:00:45;15.60;;;9.80;;
10244;SDS011;5167;52.164;10.530;2023-03-01T07:03:10;19.10;;;10.10;;
10244;SDS011;5167;52.164;10.530;2023-03-01T07:05:36;16.00;;;9.10;;
10244;SDS011;5167;52.164;10.530;2023-03-01T07:08:01;17.03;;;9.77;;
10244;SDS011;5167;52.164;10.530;2023-03-01T07:10:27;15.27;;;9.43;;
10244;SDS011;5167;52.164;10.530;2023-03-01T07:12:56;12.97;;;8.90;;
10244;SDS011;5167;52.164;10.530;2023-03-01T07:15:22;14.90;;;9.13;;
10244;SDS011;5167;52.164;10.530;2023-03-01T07:17:48;15.13;;;9.47;;
10244;SDS011;5167;52.164;10.530;2023-03-01T07:20:15;18.40;;;8.37;;
10244;SDS011;5167;52.164;10.530;2023-03-01T07:22:41;20.47;;;8.83;;
10244;SDS011;5167;52.164;10.530;2023-03-01T07:25:07;17.17;;;9.37;;
10244;SDS011;5167;52.164;10.530;2023-03-01T07:27:34;14.10;;;8.00;;
10244;SDS011;5167;52.164;10.530;2023-03-01T07:29:59;18.33;;;8.67;;
10244;SDS011;5167;52.164;10.530;2023-03-01T07:32:25;15.43;;;9.03;;
10244;SDS011;5167;52.164;10.530;2023-03-01T07:34:50;14.87;;;9.30;;
10244;SDS011;5167;52.164;10.530;2023-03-01T07:37:16;16.33;;;9.53;;
10244;SDS011;5167;52.164;10.530;2023-03-01T07:39:42;16.87;;;9.20;;
10244;SDS011;5167;52.164;10.530;2023-03-01T07:42:08;19.87;;;10.17;;
10244;SDS011;5167;52.164;10.530;2023-03-01T07:44:33;15.40;;;9.83;;
10244;SDS011;5167;52.164;10.530;2023-03-01T07:47:02;14.87;;;9.43;;
10244;SDS011;5167;52.164;10.530;2023-03-01T07:49:29;19.57;;;9.80;;
10244;SDS011;5167;52.164;10.530;2023-03-01T07:51:54;19.53;;;9.13;;
10244;SDS011;5167;52.164;10.530;2023-03-01T07:54:20;18.37;;;9.87;;
10244;SDS011;5167;52.164;10.530;2023-03-01T07:56:45;17.37;;;9.70;;
10244;SDS011;5167;52.164;10.530;2023-03-01T07:59:11;20.57;;;9.60;;
10244;SDS011;5167;52.164;10.530;2023-03-01T08:01:36;18.07;;;10.67;;
10244;SDS011;5167;52.164;10.530;2023-03-01T08:04:02;18.47;;;10.17;;
10244;SDS011;5167;52.164;10.530;2023-03-01T08:06:29;15.00;;;9.57;;
10244;SDS011;5167;52.164;10.530;2023-03-01T08:08:55;19.13;;;11.27;;
10244;SDS011;5167;52.164;10.530;2023-03-01T08:11:20;15.90;;;10.67;;
10244;SDS011;5167;52.164;10.530;2023-03-01T08:13:47;17.27;;;9.43;;
10244;SDS011;5167;52.164;10.530;2023-03-01T08:16:14;19.07;;;9.93;;
10244;SDS011;5167;52.164;10.530;2023-03-01T08:18:40;15.80;;;10.00;;
10244;SDS011;5167;52.164;10.530;2023-03-01T08:21:11;14.10;;;8.80;;
10244;SDS011;5167;52.164;10.530;2023-03-01T08:23:38;16.43;;;9.07;;
10244;SDS011;5167;52.164;10.530;2023-03-01T08:26:11;13.47;;;9.03;;
10244;SDS011;5167;52.164;10.530;2023-03-01T08:28:38;17.47;;;8.53;;
10244;SDS011;5167;52.164;10.530;2023-03-01T08:31:18;18.53;;;9.13;;
10244;SDS011;5167;52.164;10.530;2023-03-01T08:33:52;13.07;;;8.40;;
10244;SDS011;5167;52.164;10.530;2023-03-01T08:36:20;13.70;;;8.80;;
10244;SDS011;5167;52.164;10.530;2023-03-01T08:38:47;16.07;;;9.70;;
10244;SDS011;5167;52.164;10.530;2023-03-01T08:41:13;16.03;;;8.40;;
10244;SDS011;5167;52.164;10.530;2023-03-01T08:43:39;13.30;;;8.47;;
10244;SDS011;5167;52.164;10.530;2023-03-01T08:46:05;10.97;;;7.53;;
10244;SDS011;5167;52.164;10.530;2023-03-01T08:48:31;14.60;;;8.30;;
10244;SDS011;5167;52.164;10.530;2023-03-01T08:50:56;22.17;;;9.77;;
10244;SDS011;5167;52.164;10.530;2023-03-01T08:53:22;15.67;;;8.93;;
10244;SDS011;5167;52.164;10.530;2023-03-01T08:55:47;14.47;;;8.83;;
10244;SDS011;5167;52.164;10.530;2023-03-01T08:58:13;14.63;;;8.10;;
10244;SDS011;5167;52.164;10.530;2023-03-01T09:00:39;15.03;;;8.83;;
10244;SDS011;5167;52.164;10.530;2023-03-01T09:03:05;13.03;;;8.80;;
10244;SDS011;5167;52.164;10.530;2023-03-01T09:05:31;14.70;;;8.90;;
10244;SDS011;5167;52.164;10.530;2023-03-01T09:07:57;10.97;;;7.47;;
10244;SDS011;5167;52.164;10.530;2023-03-01T09:10:23;19.23;;;8.20;;
10244;SDS011;5167;52.164;10.530;2023-03-01T09:12:48;15.60;;;7.53;;
10244;SDS011;5167;52.164;10.530;2023-03-01T09:15:14;12.27;;;7.50;;
10244;SDS011;5167;52.164;10.530;2023-03-01T09:17:39;11.57;;;7.87;;
10244;SDS011;5167;52.164;10.530;2023-03-01T09:20:05;13.77;;;8.10;;
10244;SDS011;5167;52.164;10.530;2023-03-01T09:22:32;9.97;;;7.30;;
10244;SDS011;5167;52.164;10.530;2023-03-01T09:25:00;17.10;;;8.43;;
10244;SDS011;5167;52.164;10.530;2023-03-01T09:27:25;11.70;;;7.90;;
10244;SDS011;5167;52.164;10.530;2023-03-01T09:29:51;10.40;;;6.93;;
10244;SDS011;5167;52.164;10.530;2023-03-01T09:32:16;13.90;;;8.20;;
10244;SDS011;5167;52.164;10.530;2023-03-01T09:34:42;14.23;;;8.63;;
10244;SDS011;5167;52.164;10.530;2023-03-01T09:37:26;12.67;;;8.13;;
10244;SDS011;5167;52.164;10.530;2023-03-01T09:39:52;13.77;;;8.27;;
10244;SDS011;5167;52.164;10.530;2023-03-01T09:42:17;12.40;;;7.37;;
10244;SDS011;5167;52.164;10.530;2023-03-01T09:44:47;14.40;;;7.83;;
10244;SDS011;5167;52.164;10.530;2023-03-01T09:47:23;10.27;;;5.90;;
10244;SDS011;5167;52.164;10.530;2023-03-01T09:52:34;9.07;;;5.57;;
10244;SDS011;5167;52.164;10.530;2023-03-01T09:58:22;9.17;;;5.10;;
10244;SDS011;5167;52.164;10.530;2023-03-01T10:04:04;9.17;;;5.83;;
10244;SDS011;5167;52.164;10.530;2023-03-01T10:07:03;11.50;;;5.63;;
10244;SDS011;5167;52.164;10.530;2023-03-01T10:09:45;9.30;;;5.63;;
10244;SDS011;5167;52.164;10.530;2023-03-01T10:12:13;11.67;;;6.17;;
10244;SDS011;5167;52.164;10.530;2023-03-01T10:14:55;6.60;;;4.63;;
10244;SDS011;5167;52.164;10.530;2023-03-01T10:20:13;7.67;;;5.03;;
10244;SDS011;5167;52.164;10.530;2023-03-01T10:22:46;6.07;;;5.07;;
10244;SDS011;5167;52.164;10.530;2023-03-01T10:25:15;7.33;;;4.43;;
10244;SDS011;5167;52.164;10.530;2023-03-01T10:27:59;11.87;;;5.63;;
10244;SDS011;5167;52.164;10.530;2023-03-01T10:30:37;9.80;;;5.47;;
10244;SDS011;5167;52.164;10.530;2023-03-01T10:33:13;13.07;;;5.53;;
10244;SDS011;5167;52.164;10.530;2023-03-01T10:35:49;8.03;;;5.30;;
10244;SDS011;5167;52.164;10.530;2023-03-01T10:38:16;8.70;;;5.13;;
10244;SDS011;5167;52.164;10.530;2023-03-01T10:40:55;8.57;;;4.83;;
10244;SDS011;5167;52.164;10.530;2023-03-01T10:43:23;6.60;;;4.13;;
10244;SDS011;5167;52.164;10.530;2023-03-01T10:45:50;6.47;;;4.57;;
10244;SDS011;5167;52.164;10.530;2023-03-01T10:48:17;8.57;;;4.73;;
10244;SDS011;5167;52.164;10.530;2023-03-01T10:50:47;8.20;;;4.40;;
10244;SDS011;5167;52.164;10.530;2023-03-01T10:53:31;9.13;;;4.80;;
10244;SDS011;5167;52.164;10.530;2023-03-01T10:56:08;8.93;;;4.70;;
10244;SDS011;5167;52.164;10.530;2023-03-01T10:58:39;6.30;;;4.40;;
10244;SDS011;5167;52.164;10.530;2023-03-01T11:03:41;9.07;;;4.57;;
10244;SDS011;5167;52.164;10.530;2023-03-01T11:08:42;9.57;;;4.77;;
10244;SDS011;5167;52.164;10.530;2023-03-01T11:16:17;6.13;;;3.97;;
10244;SDS011;5167;52.164;10.530;2023-03-01T11:18:56;8.93;;;4.83;;
10244;SDS011;5167;52.164;10.530;2023-03-01T11:21:23;7.53;;;4.60;;
10244;SDS011;5167;52.164;10.530;2023-03-01T11:23:51;7.50;;;4.20;;
10244;SDS011;5167;52.164;10.530;2023-03-01T11:26:17;8.50;;;4.43;;
10244;SDS011;5167;52.164;10.530;2023-03-01T11:28:44;8.57;;;4.23;;
10244;SDS011;5167;52.164;10.530;2023-03-01T11:31:15;6.43;;;3.90;;
10244;SDS011;5167;52.164;10.530;2023-03-01T11:33:46;7.13;;;3.87;;
10244;SDS011;5167;52.164;10.530;2023-03-01T11:39:17;5.50;;;4.30;;
10244;SDS011;5167;52.164;10.530;2023-03-01T11:41:47;10.67;;;4.43;;
10244;SDS011;5167;52.164;10.530;2023-03-01T11:44:20;7.67;;;4.30;;
10244;SDS011;5167;52.164;10.530;2023-03-01T11:47:02;9.10;;;4.77;;
10244;SDS011;5167;52.164;10.530;2023-03-01T11:49:57;7.07;;;4.20;;
10244;SDS011;5167;52.164;10.530;2023-03-01T12:01:07;5.57;;;4.10;;
10244;SDS011;5167;52.164;10.530;2023-03-01T12:06:27;6.83;;;4.10;;
10244;SDS011;5167;52.164;10.530;2023-03-01T12:11:46;7.97;;;4.60;;
10244;SDS011;5167;52.164;10.530;2023-03-01T12:17:26;10.07;;;4.73;;
10244;SDS011;5167;52.164;10.530;2023-03-01T12:20:05;9.93;;;4.47;;
10244;SDS011;5167;52.164;10.530;2023-03-01T12:22:47;8.23;;;5.27;;
10244;SDS011;5167;52.164;10.530;2023-03-01T12:25:41;7.13;;;4.33;;
10244;SDS011;5167;52.164;10.530;2023-03-01T12:31:08;8.20;;;4.37;;
10244;SDS011;5167;52.164;10.530;2023-03-01T12:44:30;5.70;;;4.03;;
10244;SDS011;5167;52.164;10.530;2023-03-01T12:47:11;5.00;;;4.00;;
10244;SDS011;5167;52.164;10.530;2023-03-01T12:49:59;6.40;;;4.10;;
10244;SDS011;5167;52.164;10.530;2023-03-01T12:52:44;6.50;;;4.63;;
10244;SDS011;5167;52.164;10.530;2023-03-01T12:55:29;8.07;;;5.27;;
10244;SDS011;5167;52.164;10.530;2023-03-01T13:00:46;8.37;;;3.90;;
10244;SDS011;5167;52.164;10.530;2023-03-01T13:03:26;6.47;;;4.07;;
10244;SDS011;5167;52.164;10.530;2023-03-01T13:06:15;6.40;;;3.73;;
10244;SDS011;5167;52.164;10.530;2023-03-01T13:09:08;6.00;;;4.10;;
10244;SDS011;5167;52.164;10.530;2023-03-01T13:11:43;4.63;;;3.50;;
10244;SDS011;5167;52.164;10.530;2023-03-01T13:16:50;5.90;;;3.97;;
10244;SDS011;5167;52.164;10.530;2023-03-01T13:19:17;7.07;;;3.80;;
10244;SDS011;5167;52.164;10.530;2023-03-01T13:21:43;5.13;;;3.27;;
10244;SDS011;5167;52.164;10.530;2023-03-01T13:24:23;7.33;;;3.60;;
10244;SDS011;5167;52.164;10.530;2023-03-01T13:29:48;6.13;;;3.53;;
10244;SDS011;5167;52.164;10.530;2023-03-01T13:32:25;6.67;;;3.87;;
10244;SDS011;5167;52.164;10.530;2023-03-01T13:37:41;4.70;;;2.83;;
10244;SDS011;5167;52.164;10.530;2023-03-01T13:42:44;5.70;;;3.50;;
10244;SDS011;5167;52.164;10.530;2023-03-01T13:48:11;4.10;;;3.10;;
10244;SDS011;5167;52.164;10.530;2023-03-01T13:50:45;7.20;;;3.07;;
10244;SDS011;5167;52.164;10.530;2023-03-01T13:53:18;6.30;;;2.87;;
10244;SDS011;5167;52.164;10.530;2023-03-01T13:55:48;8.77;;;3.13;;
10244;SDS011;5167;52.164;10.530;2023-03-01T13:58:22;4.40;;;2.90;;
10244;SDS011;5167;52.164;10.530;2023-03-01T14:00:54;3.60;;;2.10;;
10244;SDS011;5167;52.164;10.530;2023-03-01T14:03:31;3.60;;;2.63;;
10244;SDS011;5167;52.164;10.530;2023-03-01T14:06:00;6.93;;;3.40;;
10244;SDS011;5167;52.164;10.530;2023-03-01T14:08:32;3.43;;;2.93;;
10244;SDS011;5167;52.164;10.530;2023-03-01T14:13:51;5.33;;;2.80;;
10244;SDS011;5167;52.164;10.530;2023-03-01T14:19:14;4.70;;;2.80;;
10244;SDS011;5167;52.164;10.530;2023-03-01T14:21:46;2.90;;;2.27;;
10244;SDS011;5167;52.164;10.530;2023-03-01T14:24:20;4.40;;;2.63;;
10244;SDS011;5167;52.164;10.530;2023-03-01T14:26:47;4.20;;;2.50;;
10244;SDS011;5167;52.164;10.530;2023-03-01T14:29:23;5.33;;;3.20;;
10244;SDS011;5167;52.164;10.530;2023-03-01T14:31:50;4.27;;;3.00;;
10244;SDS011;5167;52.164;10.530;2023-03-01T14:34:23;6.03;;;3.50;;
10244;SDS011;5167;52.164;10.530;2023-03-01T14:36:49;4.13;;;2.73;;
10244;SDS011;5167;52.164;10.530;2023-03-01T14:39:19;5.10;;;3.07;;
10244;SDS011;5167;52.164;10.530;2023-03-01T14:41:50;5.87;;;2.60;;
10244;SDS011;5167;52.164;10.530;2023-03-01T14:44:18;2.50;;;2.30;;
10244;SDS011;5167;52.164;10.530;2023-03-01T14:46:51;4.93;;;3.40;;
10244;SDS011;5167;52.164;10.530;2023-03-01T14:49:30;5.83;;;3.33;;
10244;SDS011;5167;52.164;10.530;2023-03-01T14:52:03;6.13;;;2.97;;
10244;SDS011;5167;52.164;10.530;2023-03-01T14:54:39;7.03;;;3.60;;
10244;SDS011;5167;52.164;10.530;2023-03-01T14:57:12;4.90;;;3.30;;
10244;SDS011;5167;52.164;10.530;2023-03-01T14:59:40;5.60;;;3.37;;
10244;SDS011;5167;52.164;10.530;2023-03-01T15:02:08;7.40;;;3.10;;
10244;SDS011;5167;52.164;10.530;2023-03-01T15:04:42;4.90;;;3.00;;
10244;SDS011;5167;52.164;10.530;2023-03-01T15:07:11;6.43;;;3.50;;
10244;SDS011;5167;52.164;10.530;2023-03-01T15:09:39;5.63;;;3.87;;
10244;SDS011;5167;52.164;10.530;2023-03-01T15:12:25;5.73;;;3.67;;
10244;SDS011;5167;52.164;10.530;2023-03-01T15:14:59;5.53;;;3.23;;
10244;SDS011;5167;52.164;10.530;2023-03-01T15:17:32;5.47;;;3.27;;
10244;SDS011;5167;52.164;10.530;2023-03-01T15:20:04;3.87;;;3.17;;
10244;SDS011;5167;52.164;10.530;2023-03-01T15:22:43;3.97;;;2.87;;
10244;SDS011;5167;52.164;10.530;2023-03-01T15:25:20;4.23;;;3.07;;
10244;SDS011;5167;52.164;10.530;2023-03-01T15:27:48;5.47;;;3.13;;
10244;SDS011;5167;52.164;10.530;2023-03-01T15:30:29;4.83;;;2.90;;
10244;SDS011;5167;52.164;10.530;2023-03-01T15:33:19;5.80;;;3.60;;
10244;SDS011;5167;52.164;10.530;2023-03-01T15:36:00;4.73;;;3.20;;
10244;SDS011;5167;52.164;10.530;2023-03-01T15:40:56;4.53;;;3.07;;
10244;SDS011;5167;52.164;10.530;2023-03-01T15:46:31;3.63;;;2.73;;
10244;SDS011;5167;52.164;10.530;2023-03-01T15:48:57;4.97;;;3.50;;
10244;SDS011;5167;52.164;10.530;2023-03-01T15:51:28;4.57;;;3.17;;
10244;SDS011;5167;52.164;10.530;2023-03-01T15:54:00;5.23;;;3.07;;
10244;SDS011;5167;52.164;10.530;2023-03-01T15:56:39;7.47;;;3.27;;
10244;SDS011;5167;52.164;10.530;2023-03-01T15:59:05;4.00;;;3.00;;
10244;SDS011;5167;52.164;10.530;2023-03-01T16:01:32;5.10;;;3.13;;
10244;SDS011;5167;52.164;10.530;2023-03-01T16:03:59;4.37;;;2.93;;
10244;SDS011;5167;52.164;10.530;2023-03-01T16:06:24;3.13;;;2.47;;
10244;SDS011;5167;52.164;10.530;2023-03-01T16:08:50;8.37;;;3.80;;
10244;SDS011;5167;52.164;10.530;2023-03-01T16:11:16;7.43;;;3.17;;
10244;SDS011;5167;52.164;10.530;2023-03-01T16:13:43;9.07;;;3.57;;
10244;SDS011;5167;52.164;10.530;2023-03-01T16:16:10;5.07;;;2.97;;
10244;SDS011;5167;52.164;10.530;2023-03-01T16:18:39;4.67;;;3.60;;
10244;SDS011;5167;52.164;10.530;2023-03-01T16:21:05;4.17;;;3.00;;
10244;SDS011;5167;52.164;10.530;2023-03-01T16:23:31;4.07;;;2.73;;
10244;SDS011;5167;52.164;10.530;2023-03-01T16:25:59;4.63;;;3.63;;
10244;SDS011;5167;52.164;10.530;2023-03-01T16:28:25;3.27;;;2.77;;